Time;durP1;ratioP1;P1;durP2;ratioP2;P2;SDS_P1;SDS_P2;PMS_P1;PMS_P2;Temp;Humidity;BMP_temperature;BMP_pressure;BME280_temperature;BME280_humidity;BME280_pressure;Samples;Min_cycle;Max_cycle;Signal;HPM_P1;HPM_P2
2023/09/26 00:02:14;;;;;;;10.77;9.77;;;20.10;79.90;;;;;;5034890;28;20494;-91
2023/09/26 00:04:39;;;;;;;12.00;10.80;;;20.20;79.60;;;;;;5018521;28;20044;-90
2023/09/26 00:07:05;;;;;;;11.30;10.18;;;20.10;79.80;;;;;;5018383;28;20041;-90
2023/09/26 00:09:30;;;;;;;12.35;10.48;;;20.10;80.00;;;;;;5034599;28;20045;-90
2023/09/26 00:11:57;;;;;;;10.95;9.95;;;20.00;80.10;;;;;;5018226;28;20040;-90
2023/09/26 00:14:23;;;;;;;11.95;10.38;;;20.00;79.80;;;;;;5035070;28;20052;-91
2023/09/26 00:16:48;;;;;;;10.80;9.70;;;20.00;79.90;;;;;;5035230;28;20367;-92
2023/09/26 00:19:14;;;;;;;11.25;10.15;;;20.00;79.80;;;;;;5034554;28;20041;-91
2023/09/26 00:21:41;;;;;;;11.27;10.18;;;20.00;79.80;;;;;;5034572;28;20072;-90
2023/09/26 00:24:06;;;;;;;12.90;10.25;;;20.00;79.80;;;;;;5034394;28;20045;-90
2023/09/26 00:26:32;;;;;;;11.95;10.70;;;20.00;80.00;;;;;;5034303;28;20041;-90
2023/09/26 00:28:58;;;;;;;11.73;10.38;;;20.00;80.00;;;;;;5034577;28;20051;-91
2023/09/26 00:31:24;;;;;;;11.30;10.18;;;19.90;80.10;;;;;;5034874;28;20056;-90
2023/09/26 00:33:49;;;;;;;10.80;9.77;;;19.90;80.30;;;;;;5017333;28;20128;-91
2023/09/26 00:36:15;;;;;;;11.73;10.45;;;19.90;80.40;;;;;;5021559;28;20052;-90
2023/09/26 00:38:41;;;;;;;12.00;10.77;;;19.80;80.30;;;;;;5038124;28;20091;-91
2023/09/26 00:41:07;;;;;;;12.95;11.65;;;19.80;80.20;;;;;;5037849;28;20123;-91
2023/09/26 00:43:35;;;;;;;12.18;10.85;;;19.80;80.10;;;;;;5037570;28;20048;-91
2023/09/26 00:46:01;;;;;;;12.23;11.02;;;19.70;80.00;;;;;;5021338;28;20052;-91
2023/09/26 00:48:27;;;;;;;12.30;10.93;;;19.70;80.00;;;;;;5037658;28;20040;-91
2023/09/26 00:50:53;;;;;;;11.85;10.75;;;19.60;79.90;;;;;;5037582;28;20472;-90
2023/09/26 00:53:21;;;;;;;12.00;10.55;;;19.60;79.90;;;;;;5037738;28;20041;-91
2023/09/26 00:55:48;;;;;;;12.98;10.65;;;19.50;79.90;;;;;;5021113;28;20056;-91
2023/09/26 00:58:18;;;;;;;11.90;10.80;;;19.50;79.90;;;;;;5037999;28;20776;-91
2023/09/26 01:00:45;;;;;;;11.80;10.60;;;19.40;79.70;;;;;;5038126;28;20494;-91
2023/09/26 01:03:11;;;;;;;11.40;10.40;;;19.30;79.60;;;;;;5037418;28;20045;-91
2023/09/26 01:05:37;;;;;;;13.10;11.70;;;19.30;79.50;;;;;;5021296;28;20045;-90
2023/09/26 01:08:04;;;;;;;11.65;10.45;;;19.20;79.40;;;;;;5020762;28;20041;-92
2023/09/26 01:10:30;;;;;;;12.45;11.10;;;19.20;79.50;;;;;;5037103;28;20049;-91
2023/09/26 01:12:56;;;;;;;12.65;11.43;;;19.20;79.60;;;;;;5037115;28;20379;-91
2023/09/26 01:15:40;;;;;;;11.75;10.63;;;19.10;79.60;;;;;;5037558;28;20045;-90
2023/09/26 01:18:11;;;;;;;12.07;10.93;;;19.00;80.40;;;;;;5020834;28;20048;-91
2023/09/26 01:20:46;;;;;;;12.52;11.27;;;19.00;79.60;;;;;;5037164;28;20064;-91
2023/09/26 01:23:13;;;;;;;12.60;11.18;;;18.90;79.60;;;;;;5020481;28;20131;-91
2023/09/26 01:25:40;;;;;;;12.95;10.95;;;19.00;79.50;;;;;;5037118;28;20076;-91
2023/09/26 01:28:07;;;;;;;12.95;11.05;;;18.90;79.40;;;;;;5020915;28;20067;-91
2023/09/26 01:30:40;;;;;;;12.82;11.40;;;18.90;79.40;;;;;;5038151;28;20124;-90
2023/09/26 01:33:08;;;;;;;11.75;10.55;;;18.70;79.40;;;;;;5037721;28;20053;-91
2023/09/26 01:35:34;;;;;;;12.18;10.93;;;18.80;79.40;;;;;;5049546;28;20028;-90
2023/09/26 01:38:00;;;;;;;12.98;11.68;;;18.70;79.50;;;;;;5057974;28;20121;-92
2023/09/26 01:40:25;;;;;;;13.65;11.27;;;18.70;79.50;;;;;;5043138;28;20076;-91
2023/09/26 01:42:51;;;;;;;12.40;10.73;;;18.70;79.40;;;;;;5041081;28;20111;-90
2023/09/26 01:45:17;;;;;;;12.13;10.95;;;18.70;79.40;;;;;;5041298;28;20071;-90
2023/09/26 01:47:50;;;;;;;12.40;10.80;;;18.60;79.40;;;;;;5023083;28;20044;-90
2023/09/26 01:50:19;;;;;;;11.90;10.70;;;18.50;79.40;;;;;;5022731;28;20076;-91
2023/09/26 01:52:45;;;;;;;12.27;11.07;;;18.50;79.40;;;;;;5038919;28;20047;-91
2023/09/26 01:55:18;;;;;;;11.75;10.65;;;18.50;79.40;;;;;;5038308;28;20383;-91
2023/09/26 01:57:44;;;;;;;14.52;10.88;;;18.40;79.50;;;;;;5022056;28;20056;-90
2023/09/26 02:00:11;;;;;;;12.55;11.07;;;18.50;79.50;;;;;;5037165;28;20049;-90
2023/09/26 02:02:41;;;;;;;13.65;11.15;;;18.40;79.50;;;;;;5037396;28;20052;-90
2023/09/26 02:05:08;;;;;;;11.88;10.68;;;18.40;79.50;;;;;;5021058;28;20084;-90
2023/09/26 02:07:34;;;;;;;12.60;10.65;;;18.40;79.60;;;;;;5037437;28;20048;-90
2023/09/26 02:10:00;;;;;;;11.93;10.77;;;18.30;79.70;;;;;;5020820;28;20099;-90
2023/09/26 02:12:26;;;;;;;12.55;10.30;;;18.30;79.70;;;;;;5020679;28;20438;-91
2023/09/26 02:14:51;;;;;;;11.48;10.38;;;18.30;79.80;;;;;;5036572;28;20037;-91
2023/09/26 02:17:17;;;;;;;12.73;11.52;;;18.30;79.60;;;;;;5036857;28;20482;-91
2023/09/26 02:19:43;;;;;;;12.05;10.82;;;18.30;79.40;;;;;;5036904;28;20574;-91
2023/09/26 02:22:08;;;;;;;11.40;9.98;;;18.30;79.40;;;;;;5035903;28;20543;-90
2023/09/26 02:24:34;;;;;;;11.27;10.27;;;18.30;79.50;;;;;;5036175;28;20045;-91
2023/09/26 02:27:00;;;;;;;12.43;11.13;;;18.20;79.40;;;;;;5019925;28;20041;-90
2023/09/26 02:29:28;;;;;;;11.02;10.02;;;18.10;79.30;;;;;;5035559;28;20500;-90
2023/09/26 02:31:53;;;;;;;10.75;9.43;;;18.10;79.30;;;;;;5019033;28;20045;-91
2023/09/26 02:34:19;;;;;;;11.52;10.52;;;18.10;79.30;;;;;;5036097;28;20052;-91
2023/09/26 02:36:45;;;;;;;11.00;9.90;;;18.00;79.30;;;;;;5019527;28;20037;-91
2023/09/26 02:39:10;;;;;;;10.25;9.25;;;17.90;79.30;;;;;;5019362;28;20199;-90
2023/09/26 02:41:36;;;;;;;12.73;11.45;;;17.80;79.20;;;;;;5019754;28;20068;-91
2023/09/26 02:44:03;;;;;;;11.43;10.23;;;17.80;79.20;;;;;;5036286;28;20123;-91
2023/09/26 02:46:29;;;;;;;13.95;12.15;;;17.80;79.30;;;;;;5035893;28;20166;-91
2023/09/26 02:48:54;;;;;;;13.10;10.70;;;17.80;79.60;;;;;;5035651;28;20076;-90
2023/09/26 02:51:20;;;;;;;15.60;11.95;;;17.70;79.60;;;;;;5019365;28;20053;-90
2023/09/26 02:53:46;;;;;;;11.75;10.55;;;17.80;79.70;;;;;;5036222;28;20127;-90
2023/09/26 02:56:12;;;;;;;12.73;11.52;;;17.70;79.70;;;;;;5018675;28;20060;-91
2023/09/26 02:58:41;;;;;;;12.32;10.93;;;17.70;79.80;;;;;;5018860;28;20573;-90
2023/09/26 03:01:07;;;;;;;12.80;11.05;;;17.70;80.00;;;;;;5036173;28;20512;-91
2023/09/26 03:03:32;;;;;;;12.13;10.93;;;17.70;80.10;;;;;;5035878;28;20080;-91
2023/09/26 03:05:59;;;;;;;12.40;10.45;;;17.60;80.10;;;;;;5018756;28;20127;-91
2023/09/26 03:08:24;;;;;;;11.40;10.30;;;17.60;80.10;;;;;;5035471;28;20406;-91
2023/09/26 03:10:50;;;;;;;11.75;10.63;;;17.60;80.10;;;;;;5035816;28;20045;-91
2023/09/26 03:13:15;;;;;;;12.63;11.43;;;17.50;80.00;;;;;;5035135;28;20045;-90
2023/09/26 03:15:41;;;;;;;12.32;11.05;;;17.60;80.10;;;;;;5035290;28;20076;-90
2023/09/26 03:18:07;;;;;;;13.00;11.55;;;17.50;80.30;;;;;;5035314;28;20091;-90
2023/09/26 03:20:38;;;;;;;13.07;11.77;;;17.50;80.40;;;;;;5018884;28;20037;-91
2023/09/26 03:23:04;;;;;;;13.40;12.18;;;17.50;80.50;;;;;;5018706;28;20506;-91
2023/09/26 03:25:32;;;;;;;12.65;10.75;;;17.50;80.50;;;;;;5035284;28;20079;-90
2023/09/26 03:28:03;;;;;;;10.27;9.07;;;17.50;80.50;;;;;;5018724;28;20049;-90
2023/09/26 03:30:29;;;;;;;12.30;10.95;;;17.40;80.60;;;;;;5018914;28;20052;-91
2023/09/26 03:32:55;;;;;;;9.70;8.70;;;17.40;80.60;;;;;;5035243;28;20041;-90
2023/09/26 03:35:20;;;;;;;13.20;11.80;;;17.40;80.70;;;;;;5035117;28;20041;-91
2023/09/26 03:37:46;;;;;;;12.73;11.43;;;17.40;80.80;;;;;;5018473;28;20128;-91
2023/09/26 03:40:11;;;;;;;13.25;11.95;;;17.40;80.90;;;;;;5035284;28;20131;-90
2023/09/26 03:42:38;;;;;;;12.63;11.35;;;17.50;80.90;;;;;;5034991;28;20072;-91
2023/09/26 03:45:05;;;;;;;12.30;11.00;;;17.50;80.90;;;;;;5018657;28;20063;-91
2023/09/26 03:47:31;;;;;;;11.95;10.70;;;17.40;80.80;;;;;;5035070;28;20127;-91
2023/09/26 03:49:56;;;;;;;10.90;9.80;;;17.40;80.60;;;;;;5034664;28;20135;-91
2023/09/26 03:52:23;;;;;;;11.95;10.40;;;17.40;80.50;;;;;;5035486;28;20048;-91
2023/09/26 03:54:49;;;;;;;11.70;10.50;;;17.30;80.40;;;;;;5018429;28;20128;-89
2023/09/26 03:57:15;;;;;;;11.77;10.65;;;17.30;80.50;;;;;;5018685;28;20140;-91
2023/09/26 03:59:41;;;;;;;12.80;11.45;;;17.30;81.00;;;;;;5019093;28;20127;-91
2023/09/26 04:02:07;;;;;;;13.55;11.95;;;17.20;80.70;;;;;;5035635;28;20052;-91
2023/09/26 04:04:34;;;;;;;13.32;12.00;;;17.20;80.80;;;;;;5035000;28;20102;-91
2023/09/26 04:07:00;;;;;;;13.02;11.73;;;17.20;80.90;;;;;;5018364;28;20487;-91
2023/09/26 04:09:26;;;;;;;13.25;11.95;;;17.20;81.00;;;;;;5037951;28;20045;-91
2023/09/26 04:11:51;;;;;;;14.98;12.32;;;17.20;81.00;;;;;;5022702;28;20044;-90
2023/09/26 04:14:17;;;;;;;13.05;11.73;;;17.20;81.60;;;;;;5038637;28;20037;-90
2023/09/26 04:16:42;;;;;;;13.45;12.05;;;17.20;81.00;;;;;;5039047;28;20084;-91
2023/09/26 04:19:08;;;;;;;10.85;9.75;;;17.20;81.10;;;;;;5038188;28;20051;-91
2023/09/26 04:21:34;;;;;;;10.88;9.77;;;17.20;81.20;;;;;;5021908;28;20453;-89
2023/09/26 04:24:04;;;;;;;11.07;9.98;;;17.20;81.20;;;;;;5037742;28;20037;-90
2023/09/26 04:26:29;;;;;;;10.98;9.88;;;17.20;80.90;;;;;;5021877;28;20048;-90
2023/09/26 04:28:55;;;;;;;9.85;8.82;;;17.20;80.60;;;;;;5038663;28;20041;-90
2023/09/26 04:31:21;;;;;;;10.25;9.25;;;17.10;80.40;;;;;;5022014;28;20450;-90
2023/09/26 04:33:50;;;;;;;9.75;8.80;;;17.10;80.40;;;;;;5021928;28;20044;-90
2023/09/26 04:36:16;;;;;;;9.40;8.45;;;17.00;80.30;;;;;;5022014;28;20033;-90
2023/09/26 04:38:42;;;;;;;13.20;10.65;;;17.10;80.20;;;;;;5038251;28;20048;-90
2023/09/26 04:41:08;;;;;;;11.82;10.73;;;17.10;80.40;;;;;;5038139;28;20048;-90
2023/09/26 04:43:34;;;;;;;12.98;10.18;;;17.10;80.40;;;;;;5038308;28;20051;-90
2023/09/26 04:46:00;;;;;;;12.50;11.23;;;17.10;80.60;;;;;;5038474;28;20055;-90
2023/09/26 04:51:46;;;;;;;12.25;10.90;;;17.00;81.10;;;;;;5038748;28;20052;-90
2023/09/26 04:54:12;;;;;;;12.55;11.35;;;17.10;80.80;;;;;;5043831;28;20101;-91
2023/09/26 04:56:37;;;;;;;13.68;12.38;;;17.00;81.00;;;;;;5057269;28;20116;-90
2023/09/26 04:59:04;;;;;;;12.70;11.52;;;17.00;81.10;;;;;;5049800;28;20052;-90
2023/09/26 05:01:29;;;;;;;12.65;11.35;;;17.00;81.20;;;;;;5025064;28;20053;-90
2023/09/26 05:03:55;;;;;;;12.40;11.20;;;17.00;81.40;;;;;;5024904;28;20040;-90
2023/09/26 05:06:21;;;;;;;12.00;10.82;;;17.00;81.60;;;;;;5023399;28;20045;-91
2023/09/26 05:08:46;;;;;;;11.55;10.27;;;17.00;81.40;;;;;;5040004;28;20045;-90
2023/09/26 05:11:14;;;;;;;12.95;11.13;;;17.00;81.40;;;;;;5038853;28;20076;-91
2023/09/26 05:13:39;;;;;;;12.80;11.45;;;17.00;81.20;;;;;;5021178;28;20049;-90
2023/09/26 05:16:08;;;;;;;13.25;11.88;;;17.00;81.20;;;;;;5037695;28;20049;-91
2023/09/26 05:18:33;;;;;;;13.63;12.23;;;17.00;81.40;;;;;;5037719;28;20114;-90
2023/09/26 05:21:04;;;;;;;14.23;12.57;;;17.00;81.40;;;;;;5036270;28;20045;-90
2023/09/26 05:23:30;;;;;;;14.20;12.60;;;17.00;82.00;;;;;;5019804;28;20087;-89
2023/09/26 05:26:09;;;;;;;13.55;12.15;;;17.00;81.50;;;;;;5035515;28;20041;-90
2023/09/26 05:28:35;;;;;;;13.90;12.52;;;17.00;81.70;;;;;;5034014;28;20037;-90
2023/09/26 05:31:01;;;;;;;13.75;12.35;;;17.10;81.60;;;;;;5034097;28;20414;-90
2023/09/26 05:33:27;;;;;;;12.27;11.05;;;17.10;81.60;;;;;;5017603;28;20127;-89
2023/09/26 05:35:53;;;;;;;14.25;12.18;;;17.10;81.60;;;;;;5033039;28;20585;-90
2023/09/26 05:38:20;;;;;;;13.70;12.32;;;17.10;81.70;;;;;;5032185;28;20037;-89
2023/09/26 05:40:46;;;;;;;15.57;12.75;;;17.10;81.80;;;;;;5032140;28;20410;-90
2023/09/26 05:43:11;;;;;;;13.32;11.93;;;17.10;81.80;;;;;;5015594;28;20146;-90
2023/09/26 05:45:37;;;;;;;14.15;12.65;;;17.20;82.00;;;;;;5031890;28;20119;-90
2023/09/26 05:48:04;;;;;;;13.10;11.80;;;17.20;82.00;;;;;;5031718;28;20051;-90
2023/09/26 05:50:30;;;;;;;13.40;11.70;;;17.20;81.90;;;;;;5031304;28;20521;-89
2023/09/26 05:52:55;;;;;;;14.23;11.43;;;17.20;81.80;;;;;;5033328;28;20040;-89
2023/09/26 05:55:21;;;;;;;12.65;11.35;;;17.20;81.80;;;;;;5033038;28;20056;-90
2023/09/26 05:57:48;;;;;;;13.02;11.63;;;17.20;81.80;;;;;;5032713;28;20052;-89
2023/09/26 06:00:14;;;;;;;13.73;12.20;;;17.20;81.70;;;;;;5016620;28;20128;-89
2023/09/26 06:02:40;;;;;;;14.63;12.13;;;17.30;81.80;;;;;;5033418;28;20052;-89
2023/09/26 06:05:06;;;;;;;13.85;12.45;;;17.30;81.80;;;;;;5033341;28;20037;-90
2023/09/26 06:07:32;;;;;;;13.55;12.20;;;17.30;81.70;;;;;;5016238;28;20063;-89
2023/09/26 06:09:58;;;;;;;16.48;11.95;;;17.30;81.80;;;;;;5033131;28;20041;-90
2023/09/26 06:12:24;;;;;;;13.63;12.32;;;17.30;81.90;;;;;;5016629;28;20071;-90
2023/09/26 06:14:50;;;;;;;13.93;12.63;;;17.30;81.90;;;;;;5032968;28;20128;-89
2023/09/26 06:17:16;;;;;;;17.13;12.65;;;17.40;82.10;;;;;;5033025;28;20563;-90
2023/09/26 06:19:46;;;;;;;13.60;12.20;;;17.30;82.00;;;;;;5033217;28;20053;-90
2023/09/26 06:22:12;;;;;;;14.68;12.20;;;17.30;82.10;;;;;;5032771;28;20040;-90
2023/09/26 06:24:38;;;;;;;13.80;12.40;;;17.40;82.10;;;;;;5033103;28;20552;-90
2023/09/26 06:27:04;;;;;;;14.55;12.77;;;17.40;82.80;;;;;;5032979;28;20041;-90
2023/09/26 06:29:29;;;;;;;14.35;12.38;;;17.50;82.20;;;;;;5032961;28;20080;-90
2023/09/26 06:31:55;;;;;;;13.85;12.40;;;17.50;82.10;;;;;;5031291;28;20094;-89
2023/09/26 06:34:20;;;;;;;15.65;14.02;;;17.60;82.20;;;;;;5016423;28;20048;-90
2023/09/26 06:36:50;;;;;;;15.57;12.90;;;17.60;82.20;;;;;;5033056;28;20051;-90
2023/09/26 06:39:15;;;;;;;14.07;12.70;;;17.60;82.20;;;;;;5032521;28;20041;-90
2023/09/26 06:41:41;;;;;;;13.63;12.15;;;17.60;82.10;;;;;;5015930;28;20044;-90
2023/09/26 06:44:09;;;;;;;13.68;12.27;;;17.70;82.20;;;;;;5032859;28;20124;-89
2023/09/26 06:46:35;;;;;;;14.50;12.93;;;17.70;82.10;;;;;;5033073;28;20063;-90
2023/09/26 06:49:01;;;;;;;13.43;12.02;;;17.80;82.10;;;;;;5032114;28;20045;-90
2023/09/26 06:51:26;;;;;;;14.02;12.70;;;17.80;82.10;;;;;;5032817;28;20133;-90
2023/09/26 06:53:52;;;;;;;13.95;12.60;;;17.90;82.10;;;;;;5033558;28;20045;-90
2023/09/26 06:56:18;;;;;;;13.82;12.43;;;17.90;82.20;;;;;;5031614;28;20615;-88
2023/09/26 06:58:43;;;;;;;14.50;12.75;;;18.00;82.20;;;;;;5031757;28;20052;-86
2023/09/26 07:01:17;;;;;;;14.50;13.00;;;18.00;82.20;;;;;;5031635;28;20072;-87
2023/09/26 07:03:43;;;;;;;14.68;13.18;;;18.00;82.30;;;;;;5031943;28;20098;-89
2023/09/26 07:06:10;;;;;;;16.63;13.75;;;18.10;82.20;;;;;;5032045;28;20414;-87
2023/09/26 07:08:38;;;;;;;14.43;13.02;;;18.20;82.20;;;;;;5031681;28;20546;-86
2023/09/26 07:11:05;;;;;;;15.82;13.35;;;18.20;82.20;;;;;;5032053;28;20375;-86
2023/09/26 07:13:31;;;;;;;15.73;14.23;;;18.30;81.90;;;;;;5031870;28;20103;-86
2023/09/26 07:16:03;;;;;;;16.48;13.80;;;18.30;81.90;;;;;;5031654;28;20062;-86
2023/09/26 07:18:32;;;;;;;13.68;12.27;;;18.40;82.10;;;;;;5031216;28;20048;-85
2023/09/26 07:21:04;;;;;;;15.27;13.35;;;18.50;81.80;;;;;;5031776;28;20052;-86
2023/09/26 07:23:35;;;;;;;20.48;13.52;;;18.50;81.70;;;;;;5031764;28;20493;-86
2023/09/26 07:26:20;;;;;;;14.43;12.90;;;18.50;81.80;;;;;;5014887;28;20592;-86
2023/09/26 07:28:47;;;;;;;16.95;14.30;;;18.50;82.70;;;;;;5015114;28;20560;-86
2023/09/26 07:31:14;;;;;;;16.15;14.15;;;18.60;81.90;;;;;;5031242;28;20091;-86
2023/09/26 07:33:40;;;;;;;15.23;13.73;;;18.60;81.90;;;;;;5031224;28;20556;-86
2023/09/26 07:36:07;;;;;;;14.65;13.32;;;18.70;82.10;;;;;;5030988;28;20398;-86
2023/09/26 07:38:33;;;;;;;15.25;13.75;;;18.70;81.80;;;;;;5030986;28;20055;-86
2023/09/26 07:41:00;;;;;;;15.77;14.18;;;18.80;82.00;;;;;;5031356;28;20544;-86
2023/09/26 07:43:29;;;;;;;16.13;14.48;;;18.80;82.20;;;;;;5031811;28;20052;-86
2023/09/26 07:45:57;;;;;;;14.98;13.55;;;18.90;82.10;;;;;;5034973;28;20436;-87
2023/09/26 07:48:23;;;;;;;15.93;14.40;;;18.90;81.90;;;;;;5034956;28;20049;-86
2023/09/26 07:50:49;;;;;;;14.82;13.32;;;19.00;82.00;;;;;;5034750;28;20053;-87
2023/09/26 07:53:15;;;;;;;14.35;12.55;;;19.10;82.00;;;;;;5034609;28;20049;-86
2023/09/26 07:55:41;;;;;;;15.48;13.55;;;19.10;81.80;;;;;;5018332;28;20053;-86
2023/09/26 07:58:07;;;;;;;14.77;13.20;;;19.20;81.80;;;;;;5034806;28;20053;-86
2023/09/26 08:00:34;;;;;;;14.80;13.20;;;19.20;81.60;;;;;;5034734;28;20436;-86
2023/09/26 08:03:00;;;;;;;14.70;13.20;;;19.20;81.70;;;;;;5035292;28;20056;-87
2023/09/26 08:05:25;;;;;;;15.32;13.82;;;19.30;81.60;;;;;;5034615;28;20057;-86
2023/09/26 08:07:52;;;;;;;16.77;13.68;;;19.30;81.60;;;;;;5035225;28;20044;-86
2023/09/26 08:10:17;;;;;;;14.00;12.50;;;19.30;81.50;;;;;;5035731;28;20040;-88
2023/09/26 08:12:43;;;;;;;15.05;13.45;;;19.40;81.40;;;;;;5036303;28;20091;-87
2023/09/26 08:15:09;;;;;;;15.32;13.73;;;19.40;81.30;;;;;;5047625;28;20387;-88
2023/09/26 08:17:35;;;;;;;15.55;13.95;;;19.50;81.40;;;;;;5045722;28;20045;-87
2023/09/26 08:20:00;;;;;;;15.05;13.35;;;19.50;81.30;;;;;;5035424;28;20045;-87
2023/09/26 08:22:26;;;;;;;15.75;12.73;;;19.60;81.30;;;;;;5034930;28;20482;-87
2023/09/26 08:24:51;;;;;;;14.35;12.52;;;19.60;81.40;;;;;;5035084;28;20172;-88
2023/09/26 08:27:17;;;;;;;15.68;13.38;;;19.70;81.20;;;;;;5033277;28;20059;-87
2023/09/26 08:29:43;;;;;;;15.70;14.15;;;19.80;81.20;;;;;;5032488;28;20494;-88
2023/09/26 08:32:09;;;;;;;14.07;12.60;;;19.90;81.10;;;;;;5032885;28;20577;-87
2023/09/26 08:34:35;;;;;;;15.23;13.63;;;20.00;81.00;;;;;;5033440;28;20052;-88
2023/09/26 08:37:01;;;;;;;14.43;12.98;;;20.00;80.80;;;;;;5032747;28;20049;-88
2023/09/26 08:39:27;;;;;;;17.38;13.85;;;20.10;80.70;;;;;;5051110;28;20064;-88
2023/09/26 08:41:53;;;;;;;14.95;13.45;;;20.20;80.50;;;;;;5033862;28;20087;-88
2023/09/26 08:44:19;;;;;;;15.40;12.93;;;20.20;80.40;;;;;;5034380;28;20075;-88
2023/09/26 08:46:45;;;;;;;14.82;13.20;;;20.30;80.40;;;;;;5034648;28;20037;-87
2023/09/26 08:49:11;;;;;;;13.77;12.38;;;20.40;80.50;;;;;;5034737;28;20056;-88
2023/09/26 08:51:37;;;;;;;13.50;12.20;;;20.50;80.60;;;;;;5034324;28;20049;-88
2023/09/26 08:54:03;;;;;;;15.77;14.07;;;20.60;80.30;;;;;;5034399;28;20387;-88
2023/09/26 08:56:31;;;;;;;13.68;12.27;;;20.70;80.30;;;;;;5016930;28;20106;-88
2023/09/26 08:58:58;;;;;;;13.90;12.60;;;20.70;80.10;;;;;;5034064;28;20049;-88
2023/09/26 09:01:24;;;;;;;13.48;12.10;;;20.70;80.00;;;;;;5034353;28;20450;-87
2023/09/26 09:03:50;;;;;;;14.98;12.13;;;20.80;80.00;;;;;;5034555;28;20051;-87
2023/09/26 09:06:15;;;;;;;22.38;12.52;;;20.80;80.50;;;;;;5034241;28;20131;-88
2023/09/26 09:08:41;;;;;;;14.48;12.45;;;20.90;79.90;;;;;;5034250;28;20163;-88
2023/09/26 09:11:07;;;;;;;13.63;12.25;;;21.00;79.90;;;;;;5033596;28;20397;-87
2023/09/26 09:13:34;;;;;;;13.45;12.02;;;21.10;79.80;;;;;;5033963;28;20056;-87
2023/09/26 09:16:07;;;;;;;13.05;11.75;;;21.10;79.60;;;;;;5034565;28;20695;-87
2023/09/26 09:18:33;;;;;;;12.98;11.70;;;21.20;79.60;;;;;;5033724;28;20059;-87
2023/09/26 09:20:59;;;;;;;13.73;12.35;;;21.40;79.00;;;;;;5033626;28;20441;-87
2023/09/26 09:23:24;;;;;;;13.55;11.85;;;21.50;78.70;;;;;;5033739;28;20048;-85
2023/09/26 09:25:51;;;;;;;15.10;12.55;;;21.60;78.70;;;;;;5033021;28;20124;-84
2023/09/26 09:28:21;;;;;;;14.00;12.13;;;21.70;78.60;;;;;;5032802;28;20044;-84
2023/09/26 09:30:48;;;;;;;12.07;10.90;;;21.80;78.70;;;;;;5032660;28;20052;-84
2023/09/26 09:33:15;;;;;;;12.23;10.85;;;21.90;78.00;;;;;;5032935;28;20049;-84
2023/09/26 09:35:41;;;;;;;14.52;11.75;;;22.10;78.10;;;;;;5033004;28;20051;-85
2023/09/26 09:38:12;;;;;;;14.48;11.82;;;22.10;78.10;;;;;;5032651;28;20049;-84
2023/09/26 09:40:39;;;;;;;13.65;11.18;;;22.20;77.70;;;;;;5032621;28;20049;-84
2023/09/26 09:43:05;;;;;;;12.60;11.40;;;22.20;77.50;;;;;;5032146;28;20128;-84
2023/09/26 09:45:34;;;;;;;13.35;11.70;;;22.40;77.30;;;;;;5032475;28;20473;-85
2023/09/26 09:48:03;;;;;;;14.65;11.23;;;22.60;77.40;;;;;;5032660;28;20041;-85
2023/09/26 09:50:31;;;;;;;11.30;10.25;;;22.70;77.10;;;;;;5032315;28;20076;-88
2023/09/26 09:53:01;;;;;;;12.40;10.48;;;22.70;76.80;;;;;;5033199;28;20446;-88
2023/09/26 09:55:38;;;;;;;12.23;11.07;;;22.70;76.30;;;;;;5032656;28;20045;-88
2023/09/26 09:58:08;;;;;;;13.10;11.70;;;22.60;76.20;;;;;;5032023;28;20049;-88
2023/09/26 10:00:36;;;;;;;12.27;11.18;;;22.60;76.00;;;;;;5033130;28;20052;-88
2023/09/26 10:03:04;;;;;;;12.25;10.98;;;22.60;76.00;;;;;;5033773;28;20044;-91
2023/09/26 10:05:31;;;;;;;12.38;11.18;;;22.50;76.10;;;;;;5038803;28;20056;-91
2023/09/26 10:07:58;;;;;;;12.25;11.07;;;22.50;76.20;;;;;;5019213;28;20441;-90
2023/09/26 10:10:25;;;;;;;12.77;11.48;;;22.40;76.30;;;;;;5032261;28;20053;-90
2023/09/26 10:12:51;;;;;;;12.70;11.40;;;22.40;76.90;;;;;;5033260;28;20037;-90
2023/09/26 10:15:17;;;;;;;12.82;11.63;;;22.50;76.80;;;;;;5033851;28;20041;-91
2023/09/26 10:17:48;;;;;;;13.15;11.70;;;22.70;76.40;;;;;;5018074;28;20064;-91
2023/09/26 10:20:15;;;;;;;11.38;10.18;;;22.80;75.90;;;;;;5033526;28;20406;-91
2023/09/26 10:22:43;;;;;;;12.10;10.90;;;22.90;75.90;;;;;;5035026;28;20041;-91
2023/09/26 10:25:16;;;;;;;12.32;10.63;;;22.90;76.20;;;;;;5019472;28;20051;-92
2023/09/26 10:27:45;;;;;;;12.03;10.93;;;22.90;75.90;;;;;;5037031;28;20041;-91
2023/09/26 10:30:14;;;;;;;12.52;10.85;;;23.00;75.90;;;;;;5036340;28;20311;-90
2023/09/26 10:32:41;;;;;;;13.82;11.27;;;22.90;76.20;;;;;;5019013;28;20068;-90
2023/09/26 10:35:13;;;;;;;11.60;10.40;;;22.90;75.90;;;;;;5019806;28;20490;-91
2023/09/26 10:37:44;;;;;;;11.02;9.88;;;22.90;75.40;;;;;;5037008;28;20488;-91
2023/09/26 10:40:12;;;;;;;9.75;8.85;;;23.10;75.80;;;;;;5018960;28;20103;-91
2023/09/26 10:42:42;;;;;;;11.43;10.23;;;23.20;75.80;;;;;;5019333;28;20477;-91
2023/09/26 10:45:09;;;;;;;11.52;10.43;;;23.20;74.90;;;;;;5035102;28;20049;-90
2023/09/26 10:47:38;;;;;;;12.35;11.05;;;23.30;74.70;;;;;;5035217;28;20057;-90
2023/09/26 10:50:13;;;;;;;12.20;10.38;;;23.30;74.60;;;;;;5019002;28;20453;-92
2023/09/26 10:52:46;;;;;;;11.70;10.52;;;23.30;74.10;;;;;;5017103;28;20091;-93
2023/09/26 10:55:14;;;;;;;12.30;11.10;;;23.50;74.10;;;;;;5018487;28;20049;-91
2023/09/26 10:57:41;;;;;;;13.13;11.55;;;23.50;74.50;;;;;;5034235;28;20084;-92
2023/09/26 11:00:12;;;;;;;11.57;10.45;;;23.60;73.90;;;;;;5017758;28;20083;-91
2023/09/26 11:02:38;;;;;;;13.20;10.57;;;23.60;73.60;;;;;;5016506;28;20052;-88
2023/09/26 11:05:08;;;;;;;11.60;10.10;;;23.70;73.80;;;;;;5031949;28;20611;-88
2023/09/26 11:07:35;;;;;;;11.77;10.57;;;23.50;74.00;;;;;;5031594;28;20044;-89
2023/09/26 11:10:03;;;;;;;10.73;9.60;;;23.50;74.60;;;;;;5031869;28;20044;-88
2023/09/26 11:12:30;;;;;;;11.18;10.00;;;23.60;74.80;;;;;;5031827;28;20053;-88
2023/09/26 11:14:55;;;;;;;11.25;10.23;;;23.70;75.20;;;;;;5049501;28;20037;-88
2023/09/26 11:17:23;;;;;;;13.88;10.50;;;23.70;75.20;;;;;;5031509;28;20040;-88
2023/09/26 11:19:50;;;;;;;11.70;10.50;;;23.80;75.00;;;;;;5031555;28;20048;-88
2023/09/26 11:22:16;;;;;;;10.57;9.57;;;23.80;74.70;;;;;;5032018;28;20536;-88
2023/09/26 11:24:42;;;;;;;11.18;10.18;;;23.90;74.40;;;;;;5031901;28;20041;-87
2023/09/26 11:27:11;;;;;;;11.73;10.15;;;23.90;73.80;;;;;;5031077;28;20052;-88
2023/09/26 11:29:37;;;;;;;10.32;9.25;;;24.00;73.90;;;;;;5031832;28;20052;-88
2023/09/26 11:32:04;;;;;;;10.70;9.60;;;24.00;73.20;;;;;;5040193;28;20052;-88
2023/09/26 11:34:30;;;;;;;10.73;9.55;;;24.00;73.10;;;;;;5038393;28;20076;-89
2023/09/26 11:36:57;;;;;;;10.10;9.07;;;24.10;72.70;;;;;;5014398;28;20045;-88
2023/09/26 11:39:23;;;;;;;10.05;9.02;;;24.10;72.80;;;;;;5031700;28;20127;-88
2023/09/26 11:42:06;;;;;;;10.48;9.50;;;24.10;73.30;;;;;;5031356;28;20087;-89
2023/09/26 11:44:32;;;;;;;9.48;8.52;;;24.00;73.30;;;;;;5014985;28;20136;-87
2023/09/26 11:46:58;;;;;;;9.23;8.27;;;24.10;73.40;;;;;;5030877;28;20132;-88
2023/09/26 11:49:24;;;;;;;9.50;8.02;;;24.10;72.80;;;;;;5031695;28;20099;-87
2023/09/26 11:51:52;;;;;;;9.05;8.15;;;24.00;73.00;;;;;;5049434;28;20084;-87
2023/09/26 11:54:18;;;;;;;10.10;8.20;;;24.00;73.10;;;;;;5030627;28;20052;-88
2023/09/26 11:56:45;;;;;;;8.23;7.43;;;24.00;72.90;;;;;;5031141;28;20456;-88
2023/09/26 11:59:11;;;;;;;10.15;7.70;;;24.00;72.60;;;;;;5031297;28;20516;-90
2023/09/26 12:01:41;;;;;;;8.10;7.18;;;23.90;73.50;;;;;;5031322;28;20052;-88
2023/09/26 12:04:10;;;;;;;8.25;6.50;;;23.90;73.90;;;;;;5048987;28;20051;-88
2023/09/26 12:06:35;;;;;;;9.30;6.75;;;23.90;73.20;;;;;;5030607;28;20077;-89
2023/09/26 12:09:04;;;;;;;7.13;6.47;;;23.90;73.50;;;;;;5014888;28;20080;-88
2023/09/26 12:11:30;;;;;;;8.88;6.55;;;24.00;73.40;;;;;;5030994;28;20049;-88
2023/09/26 12:13:56;;;;;;;7.95;6.40;;;24.00;72.70;;;;;;5031333;28;20045;-87
2023/09/26 12:16:22;;;;;;;8.40;6.57;;;24.10;72.60;;;;;;5030894;28;20048;-88
2023/09/26 12:18:48;;;;;;;9.05;7.05;;;24.10;72.80;;;;;;5031157;28;20045;-87
2023/09/26 12:21:13;;;;;;;8.00;6.53;;;24.20;72.00;;;;;;5030926;28;20041;-88
2023/09/26 12:23:39;;;;;;;8.27;6.50;;;24.20;72.50;;;;;;5031190;28;20045;-89
2023/09/26 12:26:05;;;;;;;7.55;6.65;;;24.20;71.80;;;;;;5030872;28;20088;-89
2023/09/26 12:28:30;;;;;;;8.40;5.93;;;24.20;71.50;;;;;;5031144;28;20049;-88
2023/09/26 12:30:56;;;;;;;6.63;6.00;;;24.30;71.40;;;;;;5034123;28;20057;-88